Time;durP1;ratioP1;P1;durP2;ratioP2;P2;SDS_P1;SDS_P2;PMS_P1;PMS_P2;Temp;Humidity;BMP_temperature;BMP_pressure;BME280_temperature;BME280_humidity;BME280_pressure;Samples;Min_cycle;Max_cycle;Signal;HPM_P1;HPM_P2
2022/03/21 09:23:54;;;;;;;;;16.50;16.50;;;;;;;;5117944;27;2639514;-75
2022/03/21 09:26:21;;;;;;;;;14.00;13.75;;;;;;;;5199951;27;22578;-75
2022/03/21 09:28:48;;;;;;;;;18.00;15.00;;;;;;;;5180920;27;11775;-74
2022/03/21 09:31:13;;;;;;;;;14.50;13.75;;;;;;;;5199493;27;11662;-74
2022/03/21 09:33:41;;;;;;;;;15.50;14.50;;;;;;;;5199605;27;11423;-75
2022/03/21 09:36:07;;;;;;;;;16.00;13.50;;;;;;;;5199835;27;11444;-74
2022/03/21 09:38:32;;;;;;;;;13.25;12.50;;;;;;;;5199602;27;10356;-70
2022/03/21 09:41:01;;;;;;;;;15.50;15.50;;;;;;;;5200095;27;10557;-72
2022/03/21 09:43:28;;;;;;;;;16.25;13.75;;;;;;;;5192110;27;10676;-72
2022/03/21 09:45:55;;;;;;;;;11.75;11.75;;;;;;;;5159380;27;12139;-71
2022/03/21 09:48:22;;;;;;;;;14.25;14.25;;;;;;;;5159816;27;10003;-73
2022/03/21 09:50:52;;;;;;;;;13.25;13.00;;;;;;;;5178580;27;10739;-73
2022/03/21 09:53:18;;;;;;;;;17.75;15.25;;;;;;;;5183590;27;11619;-73
2022/03/21 09:55:43;;;;;;;;;15.50;15.50;;;;;;;;5193694;27;11595;-71
2022/03/21 09:58:10;;;;;;;;;19.00;18.00;;;;;;;;5178448;27;11368;-70
2022/03/21 10:00:39;;;;;;;;;13.25;11.75;;;;;;;;5178022;27;11500;-71
2022/03/21 10:03:05;;;;;;;;;12.00;11.50;;;;;;;;5178289;27;11479;-73
2022/03/21 10:05:30;;;;;;;;;16.67;16.67;;;;;;;;5178735;27;11431;-73
2022/03/21 10:08:12;;;;;;;;;10.67;10.00;;;;;;;;5188333;27;11331;-72
2022/03/21 10:10:38;;;;;;;;;12.33;12.33;;;;;;;;5197817;27;12655;-75
2022/03/21 10:13:03;;;;;;;;;15.00;15.00;;;;;;;;5197866;27;11449;-75
2022/03/21 10:15:29;;;;;;;;;16.00;14.33;;;;;;;;5197646;27;11461;-75
2022/03/21 10:18:23;;;;;;;;;16.67;14.33;;;;;;;;5197112;27;11870;-76
2022/03/21 10:20:48;;;;;;;;;15.00;14.00;;;;;;;;5091472;28;8820;-76
2022/03/21 10:23:21;;;;;;;;;13.00;13.00;;;;;;;;5090549;28;11372;-75
2022/03/21 10:25:47;;;;;;;;;14.25;14.25;;;;;;;;5089347;28;8912;-75
2022/03/21 10:28:31;;;;;;;;;17.00;14.67;;;;;;;;5091665;28;11781;-74
2022/03/21 10:30:57;;;;;;;;;16.33;15.67;;;;;;;;5123886;27;11493;-73
2022/03/21 10:33:25;;;;;;;;;17.33;15.33;;;;;;;;5193546;27;10755;-73
2022/03/21 10:35:50;;;;;;;;;14.00;12.75;;;;;;;;5182773;27;11457;-76
2022/03/21 10:38:28;;;;;;;;;14.00;14.00;;;;;;;;5182660;27;10339;-73
2022/03/21 10:40:54;;;;;;;;;17.67;17.00;;;;;;;;5183821;27;8991;-76
2022/03/21 10:43:19;;;;;;;;;14.67;14.67;;;;;;;;5183061;27;10576;-74
2022/03/21 10:45:50;;;;;;;;;20.33;17.00;;;;;;;;5182622;27;11365;-76
2022/03/21 10:48:17;;;;;;;;;16.00;15.75;;;;;;;;5182790;27;14514;-74
2022/03/21 10:50:47;;;;;;;;;14.00;14.00;;;;;;;;5183812;27;13369;-76
2022/03/21 10:53:12;;;;;;;;;13.25;12.50;;;;;;;;5182708;27;11705;-76
2022/03/21 10:55:44;;;;;;;;;16.75;16.75;;;;;;;;5164654;27;14822;-75
2022/03/21 10:58:13;;;;;;;;;14.75;14.75;;;;;;;;5183284;27;11786;-75
2022/03/21 11:00:38;;;;;;;;;17.00;15.50;;;;;;;;5164928;27;10431;-74
2022/03/21 11:03:05;;;;;;;;;15.25;14.25;;;;;;;;5182331;27;11367;-75
2022/03/21 11:05:33;;;;;;;;;16.00;15.75;;;;;;;;5182013;27;11853;-74
2022/03/21 11:07:58;;;;;;;;;14.75;14.50;;;;;;;;5178891;27;10710;-77
2022/03/21 11:10:24;;;;;;;;;16.75;15.00;;;;;;;;5163821;27;11931;-75
2022/03/21 11:12:50;;;;;;;;;16.00;14.00;;;;;;;;5182192;27;11601;-76
2022/03/21 11:15:15;;;;;;;;;13.00;12.50;;;;;;;;5181382;27;10875;-74
2022/03/21 11:17:41;;;;;;;;;16.00;14.75;;;;;;;;5181407;27;11596;-78
2022/03/21 11:20:15;;;;;;;;;13.50;13.50;;;;;;;;5182066;27;11656;-77
2022/03/21 11:22:41;;;;;;;;;14.50;14.00;;;;;;;;5175616;27;11466;-78
2022/03/21 11:25:11;;;;;;;;;14.00;14.00;;;;;;;;5170581;27;11519;-77
2022/03/21 11:27:56;;;;;;;;;15.50;15.00;;;;;;;;5172142;27;8933;-78
2022/03/21 11:30:29;;;;;;;;;14.75;14.00;;;;;;;;5172006;27;11339;-75
2022/03/21 11:32:57;;;;;;;;;13.00;10.75;;;;;;;;5172370;27;11669;-76
2022/03/21 11:35:28;;;;;;;;;13.00;13.00;;;;;;;;5170439;27;11644;-75
2022/03/21 11:37:55;;;;;;;;;12.75;12.00;;;;;;;;5161823;27;11421;-76
2022/03/21 11:40:24;;;;;;;;;17.00;16.00;;;;;;;;5161822;27;11417;-74
2022/03/21 11:42:55;;;;;;;;;11.25;11.25;;;;;;;;5161749;27;11485;-78
2022/03/21 11:45:24;;;;;;;;;15.25;14.25;;;;;;;;5160003;27;11689;-76
2022/03/21 11:47:50;;;;;;;;;15.75;13.50;;;;;;;;5182504;27;11333;-76
2022/03/21 11:50:25;;;;;;;;;15.25;15.25;;;;;;;;5164106;27;13691;-77
2022/03/21 11:53:10;;;;;;;;;17.25;16.00;;;;;;;;5181794;27;10906;-76
2022/03/21 11:55:36;;;;;;;;;18.25;16.00;;;;;;;;5181708;27;11498;-76
2022/03/21 11:58:20;;;;;;;;;16.25;14.00;;;;;;;;5182763;27;11365;-78
2022/03/21 12:01:05;;;;;;;;;16.00;14.50;;;;;;;;5183530;27;11445;-76
2022/03/21 12:03:30;;;;;;;;;14.00;12.00;;;;;;;;5182572;27;11334;-75
2022/03/21 12:06:14;;;;;;;;;16.00;14.25;;;;;;;;5174737;27;11696;-78
2022/03/21 12:08:44;;;;;;;;;16.25;16.00;;;;;;;;5171414;27;12684;-77
2022/03/21 12:11:33;;;;;;;;;17.75;16.00;;;;;;;;5169784;27;11360;-80
2022/03/21 12:14:16;;;;;;;;;15.50;14.00;;;;;;;;5171068;27;11417;-74
2022/03/21 12:16:42;;;;;;;;;16.50;14.75;;;;;;;;5167959;27;11569;-75
2022/03/21 12:19:07;;;;;;;;;17.25;15.75;;;;;;;;5151695;27;11758;-74
2022/03/21 12:21:32;;;;;;;;;16.50;15.75;;;;;;;;5148923;27;10680;-75
2022/03/21 12:24:11;;;;;;;;;16.25;16.25;;;;;;;;5148554;27;12096;-75
2022/03/21 12:26:36;;;;;;;;;14.50;14.50;;;;;;;;5150742;27;12311;-75
2022/03/21 12:31:46;;;;;;;;;14.00;14.00;;;;;;;;5168165;27;9803;-74
2022/03/21 12:34:30;;;;;;;;;15.50;15.50;;;;;;;;5162946;27;11451;-74
2022/03/21 12:36:55;;;;;;;;;17.50;15.75;;;;;;;;5166812;27;11473;-73
2022/03/21 12:39:21;;;;;;;;;15.25;13.50;;;;;;;;5171065;27;12295;-74
2022/03/21 12:41:47;;;;;;;;;12.25;12.25;;;;;;;;5149899;27;12182;-75
2022/03/21 12:44:13;;;;;;;;;13.75;11.75;;;;;;;;5171084;27;11411;-75
2022/03/21 12:46:38;;;;;;;;;15.25;12.50;;;;;;;;5168716;27;10419;-76
2022/03/21 12:49:04;;;;;;;;;14.75;14.50;;;;;;;;5174609;27;11942;-73
2022/03/21 12:51:34;;;;;;;;;15.00;14.00;;;;;;;;5166838;27;9527;-74
2022/03/21 12:54:00;;;;;;;;;14.25;14.00;;;;;;;;5170544;27;11606;-73
2022/03/21 12:56:26;;;;;;;;;15.25;12.75;;;;;;;;5169195;27;11399;-74
2022/03/21 12:58:55;;;;;;;;;17.25;16.25;;;;;;;;5169399;27;12148;-74
2022/03/21 13:01:21;;;;;;;;;14.00;14.00;;;;;;;;5170040;27;10412;-75
2022/03/21 13:03:46;;;;;;;;;15.00;15.00;;;;;;;;5168793;27;12528;-73
2022/03/21 13:11:50;;;;;;;;;15.00;13.50;;;;;;;;5180884;27;11356;-77
2022/03/21 13:14:19;;;;;;;;;14.50;14.50;;;;;;;;5162146;27;12227;-81
2022/03/21 13:16:46;;;;;;;;;15.75;14.00;;;;;;;;5180561;27;11376;-75
2022/03/21 13:19:19;;;;;;;;;16.75;15.75;;;;;;;;5180956;27;12350;-75
2022/03/21 13:21:44;;;;;;;;;15.75;14.75;;;;;;;;5176693;27;11730;-75
2022/03/21 13:24:10;;;;;;;;;14.75;12.75;;;;;;;;5179908;27;11434;-75
2022/03/21 13:26:35;;;;;;;;;15.00;15.00;;;;;;;;5181091;27;8810;-75
2022/03/21 13:29:06;;;;;;;;;16.25;14.25;;;;;;;;5178984;27;11418;-76
2022/03/21 13:31:31;;;;;;;;;16.75;14.75;;;;;;;;5178814;27;11815;-74
2022/03/21 13:34:05;;;;;;;;;19.00;14.25;;;;;;;;5180666;27;11396;-74
2022/03/21 13:36:30;;;;;;;;;16.25;15.25;;;;;;;;5131160;27;10655;-76
2022/03/21 13:39:08;;;;;;;;;16.75;16.75;;;;;;;;5138565;27;12136;-76
2022/03/21 13:41:33;;;;;;;;;13.75;13.75;;;;;;;;5102376;27;10327;-75
2022/03/21 13:44:03;;;;;;;;;12.75;12.50;;;;;;;;5136442;27;12180;-75
2022/03/21 13:46:29;;;;;;;;;15.75;13.25;;;;;;;;5097986;27;12088;-76
2022/03/21 13:48:54;;;;;;;;;19.25;18.50;;;;;;;;5137593;27;12658;-75
2022/03/21 13:51:21;;;;;;;;;17.50;17.00;;;;;;;;5134797;27;11637;-77
2022/03/21 13:53:47;;;;;;;;;19.50;16.00;;;;;;;;5127129;27;11513;-77
2022/03/21 13:56:14;;;;;;;;;16.25;14.00;;;;;;;;5128091;27;11608;-75
2022/03/21 13:58:39;;;;;;;;;14.75;14.25;;;;;;;;5128067;27;11468;-76
2022/03/21 14:01:18;;;;;;;;;16.50;13.25;;;;;;;;5125521;27;11533;-78
2022/03/21 14:03:46;;;;;;;;;15.25;14.25;;;;;;;;5127503;27;11846;-77
2022/03/21 14:06:12;;;;;;;;;18.50;15.75;;;;;;;;5127900;27;11500;-76
2022/03/21 14:08:37;;;;;;;;;15.50;13.00;;;;;;;;5124167;27;12071;-75
2022/03/21 14:11:02;;;;;;;;;16.75;15.75;;;;;;;;5128959;27;12885;-75
2022/03/21 14:13:28;;;;;;;;;21.00;16.00;;;;;;;;5130057;27;11403;-75
2022/03/21 14:15:55;;;;;;;;;17.75;17.00;;;;;;;;5130708;27;13893;-77
2022/03/21 14:18:46;;;;;;;;;14.00;13.00;;;;;;;;5131490;27;12255;-77
2022/03/21 14:21:12;;;;;;;;;15.00;13.75;;;;;;;;5129919;27;11631;-76
2022/03/21 14:23:37;;;;;;;;;16.50;15.00;;;;;;;;5130043;27;11542;-74
2022/03/21 14:28:47;;;;;;;;;16.75;16.75;;;;;;;;5129443;27;11376;-76
2022/03/21 14:31:13;;;;;;;;;16.50;16.00;;;;;;;;5129925;27;11551;-75
2022/03/21 14:33:38;;;;;;;;;14.75;13.25;;;;;;;;5130890;27;9033;-76
2022/03/21 14:36:04;;;;;;;;;14.75;14.50;;;;;;;;5131245;27;11379;-75
2022/03/21 14:38:30;;;;;;;;;18.50;16.00;;;;;;;;5130133;27;8933;-75
2022/03/21 14:40:56;;;;;;;;;19.25;17.50;;;;;;;;5131497;27;11581;-74
2022/03/21 14:43:25;;;;;;;;;26.75;26.25;;;;;;;;5131656;27;11762;-75
2022/03/21 14:45:51;;;;;;;;;22.50;22.00;;;;;;;;5123710;27;13467;-75
2022/03/21 14:48:16;;;;;;;;;15.25;14.25;;;;;;;;5119049;28;14792;-75
2022/03/21 14:50:41;;;;;;;;;17.00;15.25;;;;;;;;5121098;28;13424;-77
2022/03/21 14:53:07;;;;;;;;;17.00;16.00;;;;;;;;5118040;27;13407;-76
2022/03/21 14:55:32;;;;;;;;;21.50;16.50;;;;;;;;5120557;27;9116;-76
2022/03/21 14:57:59;;;;;;;;;1.00;0.00;;;;;;;;5121045;27;13967;-76
2022/03/21 15:00:24;;;;;;;;;18.75;17.00;;;;;;;;5120080;27;22551;-76
2022/03/21 15:02:50;;;;;;;;;17.75;14.00;;;;;;;;5117909;27;25159;-75
2022/03/21 15:05:15;;;;;;;;;19.75;16.25;;;;;;;;5118292;27;10802;-81
2022/03/21 15:07:41;;;;;;;;;16.00;13.75;;;;;;;;5120764;27;12548;-73
2022/03/21 15:10:22;;;;;;;;;21.00;16.00;;;;;;;;5120204;27;10577;-77
2022/03/21 15:12:49;;;;;;;;;16.75;16.50;;;;;;;;5120418;27;13896;-77
2022/03/21 15:15:14;;;;;;;;;19.50;16.75;;;;;;;;5119972;27;13351;-77
2022/03/21 15:17:39;;;;;;;;;15.75;15.00;;;;;;;;5120361;28;12865;-77
2022/03/21 15:20:06;;;;;;;;;17.25;16.50;;;;;;;;5119899;27;12511;-78
2022/03/21 15:22:32;;;;;;;;;18.00;17.50;;;;;;;;5120544;27;13049;-77
2022/03/21 15:24:57;;;;;;;;;19.50;16.25;;;;;;;;5118508;27;12648;-77
2022/03/21 15:27:23;;;;;;;;;15.50;14.00;;;;;;;;5120108;27;11614;-78
2022/03/21 15:29:48;;;;;;;;;23.00;16.25;;;;;;;;5129750;27;11362;-77
2022/03/21 15:32:13;;;;;;;;;16.75;15.50;;;;;;;;5137624;27;13257;-79
2022/03/21 15:34:38;;;;;;;;;23.25;19.75;;;;;;;;5140342;27;13232;-78
2022/03/21 15:42:32;;;;;;;;;19.50;15.50;;;;;;;;5140246;27;13255;-79
2022/03/21 15:44:57;;;;;;;;;20.50;16.00;;;;;;;;5137750;27;13332;-75
2022/03/21 15:47:23;;;;;;;;;20.00;15.00;;;;;;;;5131211;27;13977;-85
2022/03/21 15:49:49;;;;;;;;;17.50;15.00;;;;;;;;5123453;27;9540;-77
2022/03/21 16:03:05;;;;;;;;;12.00;12.00;;;;;;;;5163406;27;1376938;-80
2022/03/21 16:05:31;;;;;;;;;17.25;12.25;;;;;;;;5178614;27;23189;-80
2022/03/21 16:07:56;;;;;;;;;13.25;12.00;;;;;;;;5179448;27;13557;-78
2022/03/21 16:10:22;;;;;;;;;14.50;14.25;;;;;;;;5198053;27;11509;-76
2022/03/21 16:12:47;;;;;;;;;15.25;12.00;;;;;;;;5196490;27;11517;-75
2022/03/21 16:15:14;;;;;;;;;14.00;14.00;;;;;;;;5198340;27;12594;-74
2022/03/21 16:17:39;;;;;;;;;19.00;14.50;;;;;;;;5197905;27;10596;-75
2022/03/21 16:20:08;;;;;;;;;17.00;15.00;;;;;;;;5198946;27;11435;-74
2022/03/21 16:22:34;;;;;;;;;13.00;13.00;;;;;;;;5197936;27;11454;-73
2022/03/21 16:24:59;;;;;;;;;12.75;12.75;;;;;;;;5198644;27;11537;-73
2022/03/21 16:27:26;;;;;;;;;21.00;14.00;;;;;;;;5198272;27;11745;-73
2022/03/21 16:29:51;;;;;;;;;13.00;12.00;;;;;;;;5198030;27;14442;-74
2022/03/21 16:32:17;;;;;;;;;19.75;14.50;;;;;;;;5195737;27;11553;-74
2022/03/21 16:34:43;;;;;;;;;10.50;8.00;;;;;;;;5177960;27;11942;-75
2022/03/21 16:37:10;;;;;;;;;18.25;13.50;;;;;;;;5197296;27;21725;-75
2022/03/21 16:39:36;;;;;;;;;16.50;13.75;;;;;;;;5197961;27;22611;-75
2022/03/21 16:42:02;;;;;;;;;16.75;14.00;;;;;;;;5198065;27;12102;-76
2022/03/21 16:44:28;;;;;;;;;20.25;17.25;;;;;;;;5198283;27;10592;-74
2022/03/21 16:46:54;;;;;;;;;15.00;13.75;;;;;;;;5197511;27;13764;-74
2022/03/21 16:49:19;;;;;;;;;18.25;14.00;;;;;;;;5197978;27;12624;-74
2022/03/21 16:51:44;;;;;;;;;18.50;18.00;;;;;;;;5178772;27;13911;-74
2022/03/21 16:54:10;;;;;;;;;19.00;18.25;;;;;;;;5198633;27;9513;-73
2022/03/21 16:56:35;;;;;;;;;11.75;11.00;;;;;;;;5179015;27;13497;-73
2022/03/21 16:59:00;;;;;;;;;18.75;15.75;;;;;;;;5198069;27;11382;-72
2022/03/21 17:01:26;;;;;;;;;16.00;16.00;;;;;;;;5198064;27;11398;-74
2022/03/21 17:03:55;;;;;;;;;20.00;15.75;;;;;;;;5197861;27;11527;-74
2022/03/21 17:06:20;;;;;;;;;20.00;18.75;;;;;;;;5197854;27;13359;-73
2022/03/21 17:08:46;;;;;;;;;16.25;15.25;;;;;;;;5198810;27;11465;-73
2022/03/21 17:11:11;;;;;;;;;20.25;16.25;;;;;;;;5197716;27;12234;-72
2022/03/21 17:13:39;;;;;;;;;18.75;17.25;;;;;;;;5188816;27;10423;-72
2022/03/21 17:16:04;;;;;;;;;18.00;16.50;;;;;;;;5184126;27;11638;-73
2022/03/21 17:23:51;;;;;;;;;19.00;16.00;;;;;;;;5184053;27;13256;-71
2022/03/21 17:26:16;;;;;;;;;16.00;16.00;;;;;;;;5183630;27;11447;-72
2022/03/21 17:28:41;;;;;;;;;17.50;16.00;;;;;;;;5183003;27;11452;-74
2022/03/21 17:31:07;;;;;;;;;19.75;19.25;;;;;;;;5152557;27;11000;-72
2022/03/21 17:33:33;;;;;;;;;21.25;18.50;;;;;;;;5183220;27;11436;-72
2022/03/21 17:35:58;;;;;;;;;15.50;12.00;;;;;;;;5183140;27;13906;-73
2022/03/21 17:38:24;;;;;;;;;17.25;13.00;;;;;;;;5183448;27;13279;-74
2022/03/21 17:40:50;;;;;;;;;18.75;17.25;;;;;;;;5183900;27;10375;-73
2022/03/21 17:43:15;;;;;;;;;16.00;16.00;;;;;;;;5183998;27;12651;-73
2022/03/21 17:45:42;;;;;;;;;17.00;15.00;;;;;;;;5183116;27;11870;-74
2022/03/21 17:48:07;;;;;;;;;20.00;18.00;;;;;;;;5183837;27;8774;-71
2022/03/21 17:50:33;;;;;;;;;24.25;18.50;;;;;;;;5178849;27;11444;-74
2022/03/21 17:52:59;;;;;;;;;18.75;18.75;;;;;;;;5174195;27;11424;-73
2022/03/21 17:55:27;;;;;;;;;18.75;17.50;;;;;;;;5183386;27;14752;-77
2022/03/21 17:57:52;;;;;;;;;21.50;17.25;;;;;;;;5183308;27;11413;-77
2022/03/21 18:00:22;;;;;;;;;23.00;16.50;;;;;;;;5164151;27;16310;-76
2022/03/21 18:02:47;;;;;;;;;18.75;14.25;;;;;;;;5163298;27;13907;-72
2022/03/21 18:05:15;;;;;;;;;17.00;15.00;;;;;;;;5183042;27;13187;-74
2022/03/21 18:07:43;;;;;;;;;21.00;15.50;;;;;;;;5183505;27;11611;-76
2022/03/21 18:10:12;;;;;;;;;18.75;17.75;;;;;;;;5182440;27;13337;-75
2022/03/21 18:12:37;;;;;;;;;21.50;20.25;;;;;;;;5182114;27;13477;-74
2022/03/21 18:15:08;;;;;;;;;19.00;16.50;;;;;;;;5181871;27;12204;-74
2022/03/21 18:17:33;;;;;;;;;24.00;18.50;;;;;;;;5163190;27;15425;-73
2022/03/21 18:19:58;;;;;;;;;22.50;17.50;;;;;;;;5183046;27;12234;-74
2022/03/21 18:22:24;;;;;;;;;22.75;18.25;;;;;;;;5182597;27;10351;-73
2022/03/21 18:24:50;;;;;;;;;19.50;18.50;;;;;;;;5181793;27;10489;-74
2022/03/21 18:27:15;;;;;;;;;18.75;14.75;;;;;;;;5163563;27;13796;-75
2022/03/21 18:29:41;;;;;;;;;15.50;15.00;;;;;;;;5182633;27;11818;-75
2022/03/21 18:32:07;;;;;;;;;21.75;18.00;;;;;;;;5182805;27;11516;-78
2022/03/21 18:34:33;;;;;;;;;17.75;15.00;;;;;;;;5182982;27;12347;-75
2022/03/21 18:36:58;;;;;;;;;22.00;18.00;;;;;;;;5182510;27;11433;-75
2022/03/21 18:39:25;;;;;;;;;23.00;18.75;;;;;;;;5182668;27;12382;-74
2022/03/21 18:41:51;;;;;;;;;20.00;17.75;;;;;;;;5181929;27;12599;-74
2022/03/21 18:44:17;;;;;;;;;19.75;18.25;;;;;;;;5163328;27;11709;-79
2022/03/21 18:46:42;;;;;;;;;18.25;14.00;;;;;;;;5182064;27;12414;-77
2022/03/21 18:49:07;;;;;;;;;23.25;20.00;;;;;;;;5182221;27;11512;-76
2022/03/21 18:51:33;;;;;;;;;18.75;17.25;;;;;;;;5182362;27;10703;-75
2022/03/21 18:53:58;;;;;;;;;17.75;16.50;;;;;;;;5175635;27;13432;-79
2022/03/21 18:56:23;;;;;;;;;15.75;13.00;;;;;;;;5162511;27;11903;-75
2022/03/21 18:58:49;;;;;;;;;16.75;13.00;;;;;;;;5169265;27;11350;-78
2022/03/21 19:01:15;;;;;;;;;14.00;12.50;;;;;;;;5160374;27;8962;-76
2022/03/21 19:03:41;;;;;;;;;18.75;18.25;;;;;;;;5160759;27;11388;-77
2022/03/21 19:06:06;;;;;;;;;19.00;17.00;;;;;;;;5165866;27;11524;-77
2022/03/21 19:08:32;;;;;;;;;17.75;17.75;;;;;;;;5180886;27;11553;-75
2022/03/21 19:11:00;;;;;;;;;21.75;17.50;;;;;;;;5180637;27;11522;-78
2022/03/21 19:13:25;;;;;;;;;19.25;17.00;;;;;;;;5160682;27;15267;-75
2022/03/21 19:15:50;;;;;;;;;18.00;14.25;;;;;;;;5177946;27;13208;-75
2022/03/21 19:18:16;;;;;;;;;21.75;19.50;;;;;;;;5179070;27;11403;-76
2022/03/21 19:20:44;;;;;;;;;19.00;16.00;;;;;;;;5176818;27;13446;-75
2022/03/21 19:23:11;;;;;;;;;21.00;17.25;;;;;;;;5161773;27;16017;-74
2022/03/21 19:25:37;;;;;;;;;21.50;18.00;;;;;;;;5177215;27;13490;-75
2022/03/21 19:28:02;;;;;;;;;18.00;17.00;;;;;;;;5162275;27;12680;-77
2022/03/21 19:30:29;;;;;;;;;22.00;17.75;;;;;;;;5181426;27;12227;-76
2022/03/21 19:32:55;;;;;;;;;17.50;16.00;;;;;;;;5179532;27;13341;-74
2022/03/21 19:35:21;;;;;;;;;20.50;19.00;;;;;;;;5161151;27;15293;-74
2022/03/21 19:37:47;;;;;;;;;27.00;26.00;;;;;;;;5179855;27;11110;-74
2022/03/21 19:40:13;;;;;;;;;21.00;18.00;;;;;;;;5179111;27;11502;-74
2022/03/21 19:45:04;;;;;;;;;17.75;17.50;;;;;;;;5176762;27;12205;-73
2022/03/21 19:47:29;;;;;;;;;18.50;18.50;;;;;;;;5178947;27;12199;-75
2022/03/21 19:49:56;;;;;;;;;22.00;18.25;;;;;;;;5160302;27;12771;-74
2022/03/21 19:52:21;;;;;;;;;17.00;17.00;;;;;;;;5179405;27;13355;-76
2022/03/21 19:54:46;;;;;;;;;20.00;17.00;;;;;;;;5178706;27;13219;-74
2022/03/21 19:57:12;;;;;;;;;20.25;18.00;;;;;;;;5160520;27;11371;-75
2022/03/21 19:59:37;;;;;;;;;25.33;21.67;;;;;;;;5159451;27;12651;-75
2022/03/21 20:02:03;;;;;;;;;26.67;23.33;;;;;;;;5178947;27;12198;-77
2022/03/21 20:04:37;;;;;;;;;24.33;21.00;;;;;;;;5181112;27;11436;-80
2022/03/21 20:07:02;;;;;;;;;23.33;23.33;;;;;;;;5162309;27;11996;-78
2022/03/21 20:09:28;;;;;;;;;19.25;19.25;;;;;;;;5181042;27;11633;-80
2022/03/21 20:11:53;;;;;;;;;27.33;25.00;;;;;;;;5181358;27;10318;-77
2022/03/21 20:14:18;;;;;;;;;26.67;20.00;;;;;;;;5161539;27;15230;-80
2022/03/21 20:16:44;;;;;;;;;24.67;18.67;;;;;;;;5179634;27;10340;-78
2022/03/21 20:19:09;;;;;;;;;20.00;18.67;;;;;;;;5180296;27;12716;-79
2022/03/21 20:21:35;;;;;;;;;20.67;18.67;;;;;;;;5180634;27;9357;-78
2022/03/21 20:24:00;;;;;;;;;23.67;18.00;;;;;;;;5161492;27;8816;-79
2022/03/21 20:26:26;;;;;;;;;20.00;16.75;;;;;;;;5176774;27;11346;-79
2022/03/21 20:28:52;;;;;;;;;21.67;20.33;;;;;;;;5181715;27;11635;-79
2022/03/21 20:31:20;;;;;;;;;21.33;20.00;;;;;;;;5180849;27;11470;-77
2022/03/21 20:33:46;;;;;;;;;22.00;19.33;;;;;;;;5151108;27;9524;-80
2022/03/21 20:36:11;;;;;;;;;54.00;44.33;;;;;;;;5161113;27;12485;-79
2022/03/21 20:38:37;;;;;;;;;60.33;49.33;;;;;;;;5161447;27;10635;-79
2022/03/21 20:41:02;;;;;;;;;23.00;18.67;;;;;;;;5161662;27;12238;-81
2022/03/21 20:43:28;;;;;;;;;18.67;18.00;;;;;;;;5160915;27;13212;-79
2022/03/21 20:45:53;;;;;;;;;20.33;18.33;;;;;;;;5142622;27;13522;-81
2022/03/21 20:48:19;;;;;;;;;20.00;16.67;;;;;;;;5161602;27;13300;-81
2022/03/21 20:50:44;;;;;;;;;1.33;0.00;;;;;;;;5164900;27;10659;-80
2022/03/21 20:53:10;;;;;;;;;18.67;17.67;;;;;;;;5163772;27;22763;-78
2022/03/21 20:55:35;;;;;;;;;17.00;14.00;;;;;;;;5163563;27;22210;-79
2022/03/21 20:58:00;;;;;;;;;22.00;17.67;;;;;;;;5163952;27;11364;-76
2022/03/21 21:00:31;;;;;;;;;22.67;17.00;;;;;;;;5148880;27;13931;-77
2022/03/21 21:02:57;;;;;;;;;22.00;21.33;;;;;;;;5181236;27;10209;-77
2022/03/21 21:05:23;;;;;;;;;22.67;20.67;;;;;;;;5185320;27;12328;-78
2022/03/21 21:07:49;;;;;;;;;20.33;20.00;;;;;;;;5185368;27;11417;-77
2022/03/21 21:12:58;;;;;;;;;20.00;20.00;;;;;;;;5185218;27;12201;-78
2022/03/21 21:15:23;;;;;;;;;26.33;23.67;;;;;;;;5185179;27;12248;-78
2022/03/21 21:17:48;;;;;;;;;20.67;19.67;;;;;;;;5184540;27;10900;-78
2022/03/21 21:20:15;;;;;;;;;25.67;21.67;;;;;;;;5184643;27;11501;-79
2022/03/21 21:22:40;;;;;;;;;19.00;18.33;;;;;;;;5166139;27;10013;-78
2022/03/21 21:25:09;;;;;;;;;8.33;4.67;;;;;;;;5184554;27;13266;-78
2022/03/21 21:27:34;;;;;;;;;23.00;23.00;;;;;;;;5184609;27;22227;-79
2022/03/21 21:30:00;;;;;;;;;23.00;17.00;;;;;;;;5184356;27;23768;-77
2022/03/21 21:32:25;;;;;;;;;20.33;18.33;;;;;;;;5184231;27;8810;-77
2022/03/21 21:34:50;;;;;;;;;22.33;19.00;;;;;;;;5184352;27;11423;-77
2022/03/21 21:37:16;;;;;;;;;26.33;21.67;;;;;;;;5178012;27;11367;-80
2022/03/21 21:39:41;;;;;;;;;21.00;19.00;;;;;;;;5166837;27;13454;-77
2022/03/21 21:42:06;;;;;;;;;25.00;20.67;;;;;;;;5164109;27;12222;-78
2022/03/21 21:44:31;;;;;;;;;23.33;19.33;;;;;;;;5167442;27;12233;-77
2022/03/21 21:46:57;;;;;;;;;22.33;21.67;;;;;;;;5184255;27;12302;-77
2022/03/21 21:49:23;;;;;;;;;21.67;20.00;;;;;;;;5165283;27;14300;-77
2022/03/21 21:51:48;;;;;;;;;22.67;20.33;;;;;;;;5183874;27;11644;-78
2022/03/21 21:54:16;;;;;;;;;17.33;16.00;;;;;;;;5183662;27;11398;-77
2022/03/21 21:56:44;;;;;;;;;23.33;19.67;;;;;;;;5165384;27;13656;-78
2022/03/21 21:59:09;;;;;;;;;23.00;19.67;;;;;;;;5164561;27;15683;-79
2022/03/21 22:01:34;;;;;;;;;25.33;18.33;;;;;;;;5182827;27;8832;-77
2022/03/21 22:04:00;;;;;;;;;12.00;12.00;;;;;;;;5164764;27;11717;-79
2022/03/21 22:06:25;;;;;;;;;18.67;18.33;;;;;;;;5162674;27;13564;-77
2022/03/21 22:08:51;;;;;;;;;0.00;0.00;;;;;;;;5180009;27;12546;-77
2022/03/21 22:11:16;;;;;;;;;24.67;17.67;;;;;;;;5182209;27;23598;-77
2022/03/21 22:13:42;;;;;;;;;25.00;20.33;;;;;;;;5183481;27;23686;-76
2022/03/21 22:16:07;;;;;;;;;24.33;21.67;;;;;;;;5183211;27;12215;-78
2022/03/21 22:18:35;;;;;;;;;23.33;20.67;;;;;;;;5183373;27;11631;-78
2022/03/21 22:21:04;;;;;;;;;22.33;19.67;;;;;;;;5163528;27;10212;-78
2022/03/21 22:23:30;;;;;;;;;19.33;17.33;;;;;;;;5183725;27;9545;-77
2022/03/21 22:25:56;;;;;;;;;18.33;16.33;;;;;;;;5164989;27;13632;-78
2022/03/21 22:28:22;;;;;;;;;21.33;17.33;;;;;;;;5183579;27;8766;-78
2022/03/21 22:30:51;;;;;;;;;18.67;16.67;;;;;;;;5184707;27;10351;-80
2022/03/21 22:33:20;;;;;;;;;22.67;16.00;;;;;;;;5184664;27;13403;-81
2022/03/21 22:35:46;;;;;;;;;20.00;17.00;;;;;;;;5184614;27;13428;-82
2022/03/21 22:38:11;;;;;;;;;20.67;15.33;;;;;;;;5183274;27;10635;-82
2022/03/21 22:48:48;;;;;;;;;18.33;16.00;;;;;;;;5181060;27;10348;-79
2022/03/21 22:51:14;;;;;;;;;19.67;16.67;;;;;;;;5182757;27;13809;-80
2022/03/21 22:53:40;;;;;;;;;17.33;16.67;;;;;;;;5162952;27;13936;-80
2022/03/21 22:56:05;;;;;;;;;23.33;17.67;;;;;;;;5182577;27;8862;-80
2022/03/21 22:58:31;;;;;;;;;21.33;19.67;;;;;;;;5183575;27;10321;-83
2022/03/21 23:00:56;;;;;;;;;24.00;20.33;;;;;;;;5164177;27;9090;-79
2022/03/21 23:03:22;;;;;;;;;19.00;16.67;;;;;;;;5183406;27;12905;-81
2022/03/21 23:05:47;;;;;;;;;24.00;23.00;;;;;;;;5164311;27;15394;-82
2022/03/21 23:08:14;;;;;;;;;24.00;23.00;;;;;;;;5181127;27;13935;-81
2022/03/21 23:10:41;;;;;;;;;23.00;22.33;;;;;;;;5162479;27;8802;-80
2022/03/21 23:13:06;;;;;;;;;28.33;27.00;;;;;;;;5182743;27;12072;-82
2022/03/21 23:15:32;;;;;;;;;27.33;20.67;;;;;;;;5182360;27;11612;-80
2022/03/21 23:17:58;;;;;;;;;27.00;22.67;;;;;;;;5162870;27;13640;-81
2022/03/21 23:20:24;;;;;;;;;27.67;24.67;;;;;;;;5182790;27;9517;-81
2022/03/21 23:22:49;;;;;;;;;24.00;19.33;;;;;;;;5182159;27;10948;-81
2022/03/21 23:25:14;;;;;;;;;28.00;23.67;;;;;;;;5181731;27;13377;-81
2022/03/21 23:27:40;;;;;;;;;27.33;24.00;;;;;;;;5183606;27;12521;-77
2022/03/21 23:30:06;;;;;;;;;28.67;22.00;;;;;;;;5183745;27;11883;-78
2022/03/21 23:32:31;;;;;;;;;25.00;23.67;;;;;;;;5183357;27;10422;-77
2022/03/21 23:34:57;;;;;;;;;26.67;24.33;;;;;;;;5183340;27;11477;-78
2022/03/21 23:37:22;;;;;;;;;26.33;22.33;;;;;;;;5182993;27;13233;-76
2022/03/21 23:42:32;;;;;;;;;25.33;22.67;;;;;;;;5183520;27;11413;-77
2022/03/21 23:44:57;;;;;;;;;30.33;25.67;;;;;;;;5182887;27;11758;-76
2022/03/21 23:47:22;;;;;;;;;24.00;21.67;;;;;;;;5183538;27;10649;-77
2022/03/21 23:49:47;;;;;;;;;20.67;20.67;;;;;;;;5183263;27;12262;-76
2022/03/21 23:52:15;;;;;;;;;17.00;16.33;;;;;;;;5183647;27;10574;-77
2022/03/21 23:54:40;;;;;;;;;24.33;18.00;;;;;;;;5182918;27;15144;-77
2022/03/21 23:57:06;;;;;;;;;28.67;22.00;;;;;;;;5182515;27;13216;-77
2022/03/21 23:59:31;;;;;;;;;29.33;25.67;;;;;;;;5182202;27;12000;-78
